sensor_id;sensor_type;location;lat;lon;timestamp;pressure;altitude;pressure_sealevel;temperature;humidity
33151;BME280;19508;42.578;23.416;2022-09-12T00:01:25;93499.75;;;16.88;80.32
33151;BME280;19508;42.578;23.416;2022-09-12T00:03:58;93485.53;;;16.77;80.35
33151;BME280;19508;42.578;23.416;2022-09-12T00:06:28;93483.13;;;16.76;80.23
33151;BME280;19508;42.578;23.416;2022-09-12T00:08:55;93491.34;;;16.71;80.41
33151;BME280;19508;42.578;23.416;2022-09-12T00:11:22;93494.06;;;16.71;80.89
33151;BME280;19508;42.578;23.416;2022-09-12T00:13:51;93501.13;;;16.72;80.63
33151;BME280;19508;42.578;23.416;2022-09-12T00:16:24;93489.78;;;16.64;79.79
33151;BME280;19508;42.578;23.416;2022-09-12T00:18:50;93500.16;;;16.62;79.63
33151;BME280;19508;42.578;23.416;2022-09-12T00:21:18;93500.94;;;16.49;80.54
33151;BME280;19508;42.578;23.416;2022-09-12T00:23:44;93498.59;;;16.43;80.15
33151;BME280;19508;42.578;23.416;2022-09-12T00:26:10;93513.88;;;16.39;80.15
33151;BME280;19508;42.578;23.416;2022-09-12T00:28:40;93509.34;;;16.34;79.98
33151;BME280;19508;42.578;23.416;2022-09-12T00:31:11;93519.09;;;16.35;79.79
33151;BME280;19508;42.578;23.416;2022-09-12T00:33:38;93515.94;;;16.28;80.08
33151;BME280;19508;42.578;23.416;2022-09-12T00:36:10;93513.31;;;16.23;79.95
33151;BME280;19508;42.578;23.416;2022-09-12T00:38:45;93513.03;;;16.05;80.22
33151;BME280;19508;42.578;23.416;2022-09-12T00:44:43;93521.94;;;15.92;79.62
33151;BME280;19508;42.578;23.416;2022-09-12T00:49:39;93523.03;;;15.91;79.90
33151;BME280;19508;42.578;23.416;2022-09-12T00:52:31;93521.94;;;15.92;79.67
33151;BME280;19508;42.578;23.416;2022-09-12T00:55:10;93516.69;;;15.77;80.67
33151;BME280;19508;42.578;23.416;2022-09-12T01:01:00;93511.94;;;15.88;80.46
33151;BME280;19508;42.578;23.416;2022-09-12T01:03:27;93507.84;;;15.90;80.47
33151;BME280;19508;42.578;23.416;2022-09-12T01:06:09;93505.13;;;15.90;80.79
33151;BME280;19508;42.578;23.416;2022-09-12T01:09:01;93510.41;;;16.00;80.90
33151;BME280;19508;42.578;23.416;2022-09-12T01:11:30;93508.25;;;15.97;80.48
33151;BME280;19508;42.578;23.416;2022-09-12T01:14:17;93503.94;;;15.96;80.71
33151;BME280;19508;42.578;23.416;2022-09-12T01:17:10;93507.84;;;15.90;80.54
33151;BME280;19508;42.578;23.416;2022-09-12T01:35:09;93492.22;;;15.39;80.73
33151;BME280;19508;42.578;23.416;2022-09-12T01:38:08;93487.91;;;15.38;80.56
33151;BME280;19508;42.578;23.416;2022-09-12T01:44:38;93492.88;;;15.31;79.71
33151;BME280;19508;42.578;23.416;2022-09-12T01:48:19;93494.59;;;15.22;79.14
33151;BME280;19508;42.578;23.416;2022-09-12T01:51:47;93493.09;;;15.11;79.01
33151;BME280;19508;42.578;23.416;2022-09-12T01:54:00;93487.78;;;15.01;79.72
33151;BME280;19508;42.578;23.416;2022-09-12T01:56:40;93485.97;;;14.96;79.96
33151;BME280;19508;42.578;23.416;2022-09-12T01:59:20;93485.19;;;14.90;79.48
33151;BME280;19508;42.578;23.416;2022-09-12T02:01:56;93478.47;;;14.88;79.57
33151;BME280;19508;42.578;23.416;2022-09-12T02:04:42;93483.63;;;14.84;79.52
33151;BME280;19508;42.578;23.416;2022-09-12T02:07:26;93492.88;;;14.83;79.25
33151;BME280;19508;42.578;23.416;2022-09-12T02:10:29;93480.72;;;14.81;78.90
33151;BME280;19508;42.578;23.416;2022-09-12T02:13:40;93490.78;;;14.75;79.31
33151;BME280;19508;42.578;23.416;2022-09-12T02:16:10;93491.91;;;14.69;78.95
33151;BME280;19508;42.578;23.416;2022-09-12T02:18:43;93484.19;;;14.57;79.09
33151;BME280;19508;42.578;23.416;2022-09-12T02:21:09;93489.38;;;14.54;79.21
33151;BME280;19508;42.578;23.416;2022-09-12T02:23:39;93494.03;;;14.48;80.03
33151;BME280;19508;42.578;23.416;2022-09-12T02:26:16;93498.66;;;14.43;80.06
33151;BME280;19508;42.578;23.416;2022-09-12T02:28:44;93505.16;;;14.47;79.95
33151;BME280;19508;42.578;23.416;2022-09-12T02:31:36;93503.56;;;14.46;80.16
33151;BME280;19508;42.578;23.416;2022-09-12T02:39:07;93497.03;;;14.42;79.41
33151;BME280;19508;42.578;23.416;2022-09-12T02:41:34;93509.53;;;14.37;79.09
33151;BME280;19508;42.578;23.416;2022-09-12T02:44:00;93501.16;;;14.34;78.45
33151;BME280;19508;42.578;23.416;2022-09-12T02:46:33;93502.88;;;14.25;78.39
33151;BME280;19508;42.578;23.416;2022-09-12T02:49:00;93500.75;;;14.17;78.78
33151;BME280;19508;42.578;23.416;2022-09-12T02:51:26;93504.03;;;14.19;79.29
33151;BME280;19508;42.578;23.416;2022-09-12T02:53:52;93508.06;;;14.21;79.30
33151;BME280;19508;42.578;23.416;2022-09-12T02:56:26;93495.34;;;14.17;79.50
33151;BME280;19508;42.578;23.416;2022-09-12T02:58:52;93505.94;;;14.13;79.26
33151;BME280;19508;42.578;23.416;2022-09-12T03:01:53;93510.28;;;14.14;79.44
33151;BME280;19508;42.578;23.416;2022-09-12T03:04:56;93510.03;;;14.10;79.20
33151;BME280;19508;42.578;23.416;2022-09-12T03:07:51;93507.00;;;14.17;78.93
33151;BME280;19508;42.578;23.416;2022-09-12T03:10:41;93514.09;;;14.08;79.65
33151;BME280;19508;42.578;23.416;2022-09-12T03:16:26;93520.66;;;14.02;79.68
33151;BME280;19508;42.578;23.416;2022-09-12T03:19:15;93536.91;;;14.02;79.19
33151;BME280;19508;42.578;23.416;2022-09-12T03:22:00;93524.47;;;13.96;79.43
33151;BME280;19508;42.578;23.416;2022-09-12T03:27:29;93519.34;;;13.94;79.57
33151;BME280;19508;42.578;23.416;2022-09-12T03:29:57;93523.41;;;13.92;79.73
33151;BME280;19508;42.578;23.416;2022-09-12T03:32:44;93533.69;;;13.95;79.74
33151;BME280;19508;42.578;23.416;2022-09-12T03:35:10;93521.84;;;13.86;79.80
33151;BME280;19508;42.578;23.416;2022-09-12T03:37:36;93519.41;;;13.84;79.94
33151;BME280;19508;42.578;23.416;2022-09-12T03:40:03;93515.13;;;13.78;79.94
33151;BME280;19508;42.578;23.416;2022-09-12T03:42:29;93517.56;;;13.79;79.84
33151;BME280;19508;42.578;23.416;2022-09-12T03:44:56;93515.38;;;13.81;79.79
33151;BME280;19508;42.578;23.416;2022-09-12T03:47:21;93520.75;;;13.87;79.04
33151;BME280;19508;42.578;23.416;2022-09-12T03:49:46;93513.75;;;13.80;79.35
33151;BME280;19508;42.578;23.416;2022-09-12T03:52:12;93519.97;;;13.81;79.08
33151;BME280;19508;42.578;23.416;2022-09-12T03:54:37;93523.28;;;13.73;79.17
33151;BME280;19508;42.578;23.416;2022-09-12T03:57:04;93525.69;;;13.74;79.24
33151;BME280;19508;42.578;23.416;2022-09-12T03:59:30;93517.63;;;13.69;78.78
33151;BME280;19508;42.578;23.416;2022-09-12T04:01:55;93530.88;;;13.71;78.89
33151;BME280;19508;42.578;23.416;2022-09-12T04:04:20;93531.97;;;13.70;79.16
33151;BME280;19508;42.578;23.416;2022-09-12T04:06:46;93515.75;;;13.65;79.26
33151;BME280;19508;42.578;23.416;2022-09-12T04:09:11;93521.38;;;13.73;79.42
33151;BME280;19508;42.578;23.416;2022-09-12T04:11:37;93524.66;;;13.70;79.45
33151;BME280;19508;42.578;23.416;2022-09-12T04:14:03;93526.03;;;13.68;79.81
33151;BME280;19508;42.578;23.416;2022-09-12T04:16:28;93531.44;;;13.68;80.08
33151;BME280;19508;42.578;23.416;2022-09-12T04:18:54;93537.66;;;13.68;80.23
33151;BME280;19508;42.578;23.416;2022-09-12T04:21:20;93527.63;;;13.69;80.29
33151;BME280;19508;42.578;23.416;2022-09-12T04:23:46;93528.44;;;13.69;80.04
33151;BME280;19508;42.578;23.416;2022-09-12T04:26:13;93532.78;;;13.65;80.14
33151;BME280;19508;42.578;23.416;2022-09-12T04:28:41;93535.47;;;13.70;80.39
33151;BME280;19508;42.578;23.416;2022-09-12T04:31:12;93543.06;;;13.68;80.37
33151;BME280;19508;42.578;23.416;2022-09-12T04:33:39;93546.03;;;13.67;80.29
33151;BME280;19508;42.578;23.416;2022-09-12T04:36:10;93544.09;;;13.72;80.06
33151;BME280;19508;42.578;23.416;2022-09-12T04:38:36;93538.75;;;13.62;80.42
33151;BME280;19508;42.578;23.416;2022-09-12T04:41:19;93550.63;;;13.66;80.82
33151;BME280;19508;42.578;23.416;2022-09-12T04:43:46;93550.16;;;13.54;81.28
33151;BME280;19508;42.578;23.416;2022-09-12T04:46:14;93549.59;;;13.57;81.29
33151;BME280;19508;42.578;23.416;2022-09-12T04:48:42;93548.47;;;13.68;80.91
33151;BME280;19508;42.578;23.416;2022-09-12T04:51:17;93546.50;;;13.79;82.00
33151;BME280;19508;42.578;23.416;2022-09-12T04:53:47;93542.41;;;13.87;80.94
33151;BME280;19508;42.578;23.416;2022-09-12T04:56:13;93548.78;;;14.01;80.79
33151;BME280;19508;42.578;23.416;2022-09-12T04:58:39;93549.28;;;14.13;81.72
33151;BME280;19508;42.578;23.416;2022-09-12T05:01:16;93548.31;;;14.33;81.16
33151;BME280;19508;42.578;23.416;2022-09-12T05:03:43;93551.78;;;14.38;82.05
33151;BME280;19508;42.578;23.416;2022-09-12T05:06:12;93549.53;;;14.51;82.74
33151;BME280;19508;42.578;23.416;2022-09-12T05:08:38;93545.09;;;14.65;82.39
33151;BME280;19508;42.578;23.416;2022-09-12T05:11:13;93540.00;;;14.87;81.80
33151;BME280;19508;42.578;23.416;2022-09-12T05:13:39;93543.34;;;15.03;81.77
33151;BME280;19508;42.578;23.416;2022-09-12T05:16:06;93538.56;;;15.19;81.88
33151;BME280;19508;42.578;23.416;2022-09-12T05:18:42;93543.78;;;15.39;80.84
33151;BME280;19508;42.578;23.416;2022-09-12T05:21:12;93540.59;;;15.32;80.50
33151;BME280;19508;42.578;23.416;2022-09-12T05:23:40;93532.50;;;15.27;79.56
33151;BME280;19508;42.578;23.416;2022-09-12T05:26:14;93546.47;;;15.39;79.38
33151;BME280;19508;42.578;23.416;2022-09-12T05:28:41;93543.78;;;15.39;79.39
33151;BME280;19508;42.578;23.416;2022-09-12T05:31:18;93545.00;;;15.71;79.51
33151;BME280;19508;42.578;23.416;2022-09-12T05:33:46;93538.28;;;15.87;78.15
33151;BME280;19508;42.578;23.416;2022-09-12T05:36:18;93533.34;;;15.89;79.36
33151;BME280;19508;42.578;23.416;2022-09-12T05:38:47;93543.03;;;16.14;78.82
33151;BME280;19508;42.578;23.416;2022-09-12T05:41:18;93542.31;;;16.27;77.83
33151;BME280;19508;42.578;23.416;2022-09-12T05:43:45;93536.34;;;16.44;75.13
33151;BME280;19508;42.578;23.416;2022-09-12T05:46:14;93524.66;;;16.44;76.58
33151;BME280;19508;42.578;23.416;2022-09-12T05:48:43;93536.09;;;16.59;77.58
33151;BME280;19508;42.578;23.416;2022-09-12T05:51:17;93537.31;;;16.86;78.53
33151;BME280;19508;42.578;23.416;2022-09-12T05:53:55;93538.00;;;16.91;77.40
33151;BME280;19508;42.578;23.416;2022-09-12T05:56:27;93529.06;;;17.05;76.00
33151;BME280;19508;42.578;23.416;2022-09-12T05:59:04;93525.56;;;17.32;74.92
33151;BME280;19508;42.578;23.416;2022-09-12T06:01:34;93529.19;;;17.41;75.22
33151;BME280;19508;42.578;23.416;2022-09-12T06:04:02;93521.22;;;17.58;74.04
33151;BME280;19508;42.578;23.416;2022-09-12T06:06:29;93529.91;;;17.74;71.90
33151;BME280;19508;42.578;23.416;2022-09-12T06:08:57;93520.03;;;17.78;73.15
33151;BME280;19508;42.578;23.416;2022-09-12T06:11:25;93517.91;;;18.11;73.11
33151;BME280;19508;42.578;23.416;2022-09-12T06:13:52;93522.28;;;18.12;71.79
33151;BME280;19508;42.578;23.416;2022-09-12T06:16:20;93510.25;;;18.36;71.61
33151;BME280;19508;42.578;23.416;2022-09-12T06:18:54;93513.09;;;18.53;68.39
33151;BME280;19508;42.578;23.416;2022-09-12T06:21:20;93513.94;;;18.76;66.23
33151;BME280;19508;42.578;23.416;2022-09-12T06:23:47;93503.81;;;18.99;67.71
33151;BME280;19508;42.578;23.416;2022-09-12T06:26:14;93502.00;;;19.25;67.87
33151;BME280;19508;42.578;23.416;2022-09-12T06:28:43;93499.47;;;19.37;63.55
33151;BME280;19508;42.578;23.416;2022-09-12T06:31:15;93502.88;;;19.83;65.59
33151;BME280;19508;42.578;23.416;2022-09-12T06:33:42;93507.56;;;20.17;65.42
33151;BME280;19508;42.578;23.416;2022-09-12T06:36:17;93502.94;;;20.43;62.22
33151;BME280;19508;42.578;23.416;2022-09-12T06:38:44;93511.13;;;20.69;61.06
33151;BME280;19508;42.578;23.416;2022-09-12T06:41:17;93513.00;;;21.03;60.19
33151;BME280;19508;42.578;23.416;2022-09-12T06:44:03;93507.25;;;20.79;56.16
33151;BME280;19508;42.578;23.416;2022-09-12T06:46:29;93519.28;;;20.09;57.04
33151;BME280;19508;42.578;23.416;2022-09-12T06:48:56;93532.09;;;19.82;57.15
33151;BME280;19508;42.578;23.416;2022-09-12T06:51:23;93526.31;;;19.75;56.52
33151;BME280;19508;42.578;23.416;2022-09-12T06:53:49;93528.44;;;19.95;60.03
33151;BME280;19508;42.578;23.416;2022-09-12T06:56:17;93529.25;;;20.05;57.42
33151;BME280;19508;42.578;23.416;2022-09-12T06:58:47;93526.41;;;20.44;58.58
33151;BME280;19508;42.578;23.416;2022-09-12T07:01:20;93528.69;;;20.60;58.06
33151;BME280;19508;42.578;23.416;2022-09-12T07:03:52;93533.63;;;20.75;56.80
33151;BME280;19508;42.578;23.416;2022-09-12T07:06:20;93526.97;;;21.10;56.55
33151;BME280;19508;42.578;23.416;2022-09-12T07:08:53;93535.59;;;21.47;57.63
33151;BME280;19508;42.578;23.416;2022-09-12T07:11:23;93539.19;;;21.22;54.39
33151;BME280;19508;42.578;23.416;2022-09-12T07:13:54;93534.38;;;21.01;56.00
33151;BME280;19508;42.578;23.416;2022-09-12T07:16:20;93544.69;;;21.04;54.52
33151;BME280;19508;42.578;23.416;2022-09-12T07:18:54;93539.53;;;21.29;54.04
33151;BME280;19508;42.578;23.416;2022-09-12T07:21:22;93551.81;;;20.88;54.36
33151;BME280;19508;42.578;23.416;2022-09-12T07:23:48;93545.53;;;20.88;56.20
33151;BME280;19508;42.578;23.416;2022-09-12T07:26:14;93548.91;;;20.76;56.60
33151;BME280;19508;42.578;23.416;2022-09-12T07:28:41;93548.06;;;21.10;53.74
33151;BME280;19508;42.578;23.416;2022-09-12T07:31:17;93547.47;;;20.87;54.75
33151;BME280;19508;42.578;23.416;2022-09-12T07:33:44;93552.53;;;21.23;51.79
33151;BME280;19508;42.578;23.416;2022-09-12T07:36:14;93554.63;;;21.26;50.21
33151;BME280;19508;42.578;23.416;2022-09-12T07:38:41;93560.50;;;21.63;50.66
33151;BME280;19508;42.578;23.416;2022-09-12T07:41:17;93554.28;;;21.83;50.70
33151;BME280;19508;42.578;23.416;2022-09-12T07:43:43;93544.53;;;21.65;50.32
33151;BME280;19508;42.578;23.416;2022-09-12T07:46:10;93551.59;;;21.75;49.88
33151;BME280;19508;42.578;23.416;2022-09-12T07:48:36;93549.91;;;21.91;49.08
33151;BME280;19508;42.578;23.416;2022-09-12T07:51:05;93539.06;;;21.94;49.19
33151;BME280;19508;42.578;23.416;2022-09-12T07:53:34;93546.56;;;22.15;48.03
33151;BME280;19508;42.578;23.416;2022-09-12T07:56:02;93541.09;;;22.06;48.51
33151;BME280;19508;42.578;23.416;2022-09-12T07:58:30;93541.31;;;22.31;47.06
33151;BME280;19508;42.578;23.416;2022-09-12T08:01:10;93538.06;;;22.29;47.24
33151;BME280;19508;42.578;23.416;2022-09-12T08:03:38;93533.13;;;22.43;45.99
33151;BME280;19508;42.578;23.416;2022-09-12T08:06:05;93543.81;;;22.77;45.74
33151;BME280;19508;42.578;23.416;2022-09-12T08:08:32;93533.69;;;22.57;45.34
33151;BME280;19508;42.578;23.416;2022-09-12T08:10:58;93546.66;;;22.90;45.53
33151;BME280;19508;42.578;23.416;2022-09-12T08:13:25;93548.91;;;23.08;44.99
33151;BME280;19508;42.578;23.416;2022-09-12T08:15:51;93543.69;;;22.95;43.91
33151;BME280;19508;42.578;23.416;2022-09-12T08:18:16;93552.75;;;23.28;45.21
33151;BME280;19508;42.578;23.416;2022-09-12T08:20:41;93545.47;;;23.12;44.95
33151;BME280;19508;42.578;23.416;2022-09-12T08:23:07;93550.16;;;23.11;43.88
33151;BME280;19508;42.578;23.416;2022-09-12T08:25:32;93556.38;;;22.87;44.18
33151;BME280;19508;42.578;23.416;2022-09-12T08:27:58;93553.88;;;22.73;44.66
33151;BME280;19508;42.578;23.416;2022-09-12T08:30:26;93549.00;;;23.00;45.32
33151;BME280;19508;42.578;23.416;2022-09-12T08:32:51;93551.34;;;23.22;44.82
33151;BME280;19508;42.578;23.416;2022-09-12T08:35:17;93536.69;;;23.18;45.24
33151;BME280;19508;42.578;23.416;2022-09-12T08:37:42;93541.53;;;22.79;44.69
33151;BME280;19508;42.578;23.416;2022-09-12T08:40:14;93533.41;;;22.92;45.16
33151;BME280;19508;42.578;23.416;2022-09-12T08:42:58;93536.59;;;23.27;45.77
33151;BME280;19508;42.578;23.416;2022-09-12T08:45:42;93548.03;;;23.74;44.02
33151;BME280;19508;42.578;23.416;2022-09-12T08:48:13;93535.88;;;23.75;42.80
33151;BME280;19508;42.578;23.416;2022-09-12T08:50:39;93528.81;;;23.99;42.03
33151;BME280;19508;42.578;23.416;2022-09-12T08:53:19;93535.81;;;23.39;44.35
33151;BME280;19508;42.578;23.416;2022-09-12T08:55:55;93544.38;;;22.92;44.15
33151;BME280;19508;42.578;23.416;2022-09-12T08:58:23;93534.75;;;22.44;46.23
33151;BME280;19508;42.578;23.416;2022-09-12T09:03:39;93523.41;;;23.20;44.97
33151;BME280;19508;42.578;23.416;2022-09-12T09:11:59;93544.44;;;22.83;43.88
33151;BME280;19508;42.578;23.416;2022-09-12T09:22:42;93534.91;;;21.88;45.84
33151;BME280;19508;42.578;23.416;2022-09-12T09:25:18;93538.84;;;22.08;45.09
33151;BME280;19508;42.578;23.416;2022-09-12T09:27:53;93524.72;;;22.48;44.21
33151;BME280;19508;42.578;23.416;2022-09-12T09:30:21;93529.34;;;23.10;43.66
33151;BME280;19508;42.578;23.416;2022-09-12T09:32:59;93518.44;;;23.47;42.86
33151;BME280;19508;42.578;23.416;2022-09-12T09:38:02;93518.63;;;23.87;41.83
33151;BME280;19508;42.578;23.416;2022-09-12T09:40:52;93527.72;;;23.54;41.37
33151;BME280;19508;42.578;23.416;2022-09-12T09:43:21;93511.78;;;23.35;42.04
33151;BME280;19508;42.578;23.416;2022-09-12T09:45:49;93514.19;;;23.49;43.44
33151;BME280;19508;42.578;23.416;2022-09-12T09:48:18;93507.97;;;23.98;43.03
33151;BME280;19508;42.578;23.416;2022-09-12T09:50:46;93507.25;;;24.01;40.72
33151;BME280;19508;42.578;23.416;2022-09-12T09:55:52;93514.81;;;24.16;39.92
33151;BME280;19508;42.578;23.416;2022-09-12T09:58:33;93499.44;;;24.39;39.98
33151;BME280;19508;42.578;23.416;2022-09-12T10:01:01;93515.13;;;24.27;40.45
33151;BME280;19508;42.578;23.416;2022-09-12T10:03:36;93504.25;;;24.30;40.84
33151;BME280;19508;42.578;23.416;2022-09-12T10:08:44;93504.03;;;24.35;39.99
33151;BME280;19508;42.578;23.416;2022-09-12T10:16:24;93509.78;;;24.06;40.15
33151;BME280;19508;42.578;23.416;2022-09-12T10:18:51;93502.56;;;24.13;40.61
33151;BME280;19508;42.578;23.416;2022-09-12T10:23:46;93503.22;;;24.75;39.01
33151;BME280;19508;42.578;23.416;2022-09-12T10:26:14;93496.75;;;24.95;40.03
33151;BME280;19508;42.578;23.416;2022-09-12T10:28:52;93507.34;;;25.09;38.74
33151;BME280;19508;42.578;23.416;2022-09-12T10:31:24;93499.22;;;25.00;38.09
33151;BME280;19508;42.578;23.416;2022-09-12T10:33:54;93501.56;;;24.86;39.61
33151;BME280;19508;42.578;23.416;2022-09-12T10:36:21;93499.13;;;24.97;40.38
33151;BME280;19508;42.578;23.416;2022-09-12T10:38:58;93507.75;;;24.95;37.46
33151;BME280;19508;42.578;23.416;2022-09-12T10:41:26;93502.56;;;24.94;40.08
33151;BME280;19508;42.578;23.416;2022-09-12T10:44:18;93499.41;;;25.36;38.35
33151;BME280;19508;42.578;23.416;2022-09-12T10:46:50;93491.75;;;25.29;38.71
33151;BME280;19508;42.578;23.416;2022-09-12T10:49:24;93510.47;;;25.08;38.58
33151;BME280;19508;42.578;23.416;2022-09-12T10:51:51;93486.84;;;25.07;38.74
33151;BME280;19508;42.578;23.416;2022-09-12T10:54:19;93488.31;;;25.32;37.70
33151;BME280;19508;42.578;23.416;2022-09-12T11:02:27;93486.81;;;25.66;38.02
33151;BME280;19508;42.578;23.416;2022-09-12T11:05:08;93483.78;;;25.55;38.49
33151;BME280;19508;42.578;23.416;2022-09-12T11:07:53;93478.63;;;25.54;37.12
33151;BME280;19508;42.578;23.416;2022-09-12T11:10:44;93489.56;;;25.50;37.48
33151;BME280;19508;42.578;23.416;2022-09-12T11:13:24;93486.19;;;25.88;39.08
33151;BME280;19508;42.578;23.416;2022-09-12T11:21:31;93486.22;;;25.73;35.82
33151;BME280;19508;42.578;23.416;2022-09-12T11:26:50;93478.59;;;24.94;36.57
33151;BME280;19508;42.578;23.416;2022-09-12T11:32:36;93479.38;;;25.07;35.76
33151;BME280;19508;42.578;23.416;2022-09-12T11:40:37;93464.03;;;26.01;37.29
33151;BME280;19508;42.578;23.416;2022-09-12T11:43:28;93461.06;;;26.09;35.76
33151;BME280;19508;42.578;23.416;2022-09-12T11:46:08;93458.88;;;25.99;36.15
33151;BME280;19508;42.578;23.416;2022-09-12T11:54:37;93461.09;;;25.30;39.19
33151;BME280;19508;42.578;23.416;2022-09-12T11:57:18;93459.94;;;25.31;39.21
33151;BME280;19508;42.578;23.416;2022-09-12T11:59:55;93458.25;;;25.58;37.52
33151;BME280;19508;42.578;23.416;2022-09-12T12:02:30;93466.63;;;25.78;39.18
33151;BME280;19508;42.578;23.416;2022-09-12T12:05:21;93479.00;;;25.09;39.71
33151;BME280;19508;42.578;23.416;2022-09-12T12:07:57;93474.84;;;24.59;40.20
33151;BME280;19508;42.578;23.416;2022-09-12T12:10:33;93481.72;;;23.88;41.46
33151;BME280;19508;42.578;23.416;2022-09-12T12:13:04;93482.09;;;23.86;41.20
33151;BME280;19508;42.578;23.416;2022-09-12T12:15:34;93480.09;;;24.11;39.84
33151;BME280;19508;42.578;23.416;2022-09-12T12:20:26;93479.25;;;24.35;37.89
33151;BME280;19508;42.578;23.416;2022-09-12T12:22:53;93488.81;;;24.13;37.21
33151;BME280;19508;42.578;23.416;2022-09-12T12:27:50;93496.28;;;23.76;38.12
33151;BME280;19508;42.578;23.416;2022-09-12T12:33:01;93486.97;;;24.05;38.42
33151;BME280;19508;42.578;23.416;2022-09-12T12:38:01;93475.84;;;24.14;38.59
33151;BME280;19508;42.578;23.416;2022-09-12T12:40:28;93478.66;;;24.82;38.42
33151;BME280;19508;42.578;23.416;2022-09-12T12:43:02;93485.13;;;24.74;38.53
33151;BME280;19508;42.578;23.416;2022-09-12T12:48:26;93466.56;;;24.71;37.63
33151;BME280;19508;42.578;23.416;2022-09-12T12:50:46;93466.72;;;24.10;38.91
33151;BME280;19508;42.578;23.416;2022-09-12T12:53:23;93479.34;;;23.86;39.56
33151;BME280;19508;42.578;23.416;2022-09-12T12:55:51;93456.38;;;24.19;38.49
33151;BME280;19508;42.578;23.416;2022-09-12T12:58:30;93470.81;;;24.96;38.04
33151;BME280;19508;42.578;23.416;2022-09-12T13:01:15;93472.81;;;25.27;37.43
33151;BME280;19508;42.578;23.416;2022-09-12T13:03:54;93473.84;;;25.82;36.27
33151;BME280;19508;42.578;23.416;2022-09-12T13:06:38;93487.69;;;25.70;36.61
33151;BME280;19508;42.578;23.416;2022-09-12T13:09:07;93480.16;;;24.80;36.29
33151;BME280;19508;42.578;23.416;2022-09-12T13:11:36;93479.50;;;24.30;37.74
33151;BME280;19508;42.578;23.416;2022-09-12T13:17:00;93494.63;;;23.39;40.22
33151;BME280;19508;42.578;23.416;2022-09-12T13:19:30;93494.34;;;23.19;40.60
33151;BME280;19508;42.578;23.416;2022-09-12T13:22:08;93490.16;;;22.89;40.99
33151;BME280;19508;42.578;23.416;2022-09-12T13:24:44;93495.00;;;22.50;42.02
33151;BME280;19508;42.578;23.416;2022-09-12T13:27:22;93501.28;;;22.30;42.64
33151;BME280;19508;42.578;23.416;2022-09-12T13:29:48;93488.28;;;21.97;43.43
33151;BME280;19508;42.578;23.416;2022-09-12T13:32:15;93484.56;;;21.93;43.73
33151;BME280;19508;42.578;23.416;2022-09-12T13:35:08;93490.44;;;21.83;44.77
33151;BME280;19508;42.578;23.416;2022-09-12T13:37:39;93492.56;;;21.48;43.59
33151;BME280;19508;42.578;23.416;2022-09-12T13:42:52;93493.94;;;21.16;46.08
33151;BME280;19508;42.578;23.416;2022-09-12T13:45:34;93484.78;;;21.11;46.94
33151;BME280;19508;42.578;23.416;2022-09-12T13:48:02;93484.44;;;21.22;46.30
33151;BME280;19508;42.578;23.416;2022-09-12T13:50:38;93478.16;;;21.21;46.15
33151;BME280;19508;42.578;23.416;2022-09-12T13:53:11;93474.28;;;21.31;47.49
33151;BME280;19508;42.578;23.416;2022-09-12T13:55:41;93468.34;;;21.29;47.24
33151;BME280;19508;42.578;23.416;2022-09-12T13:58:27;93478.53;;;21.49;47.79
33151;BME280;19508;42.578;23.416;2022-09-12T14:03:52;93482.41;;;21.48;46.33
33151;BME280;19508;42.578;23.416;2022-09-12T14:06:49;93485.91;;;21.57;46.19
33151;BME280;19508;42.578;23.416;2022-09-12T14:09:25;93479.75;;;21.60;45.87
33151;BME280;19508;42.578;23.416;2022-09-12T14:11:51;93479.53;;;21.74;45.68
33151;BME280;19508;42.578;23.416;2022-09-12T14:14:38;93477.25;;;21.76;46.85
33151;BME280;19508;42.578;23.416;2022-09-12T14:17:37;93481.81;;;21.72;46.14
33151;BME280;19508;42.578;23.416;2022-09-12T14:20:13;93472.47;;;21.73;46.64
33151;BME280;19508;42.578;23.416;2022-09-12T14:22:38;93484.69;;;21.76;44.73
33151;BME280;19508;42.578;23.416;2022-09-12T14:25:05;93484.03;;;21.49;44.57
33151;BME280;19508;42.578;23.416;2022-09-12T14:27:45;93484.19;;;21.44;42.97
33151;BME280;19508;42.578;23.416;2022-09-12T14:30:25;93487.97;;;21.31;42.99
33151;BME280;19508;42.578;23.416;2022-09-12T14:35:48;93480.41;;;21.10;44.94
33151;BME280;19508;42.578;23.416;2022-09-12T14:40:45;93479.00;;;21.13;46.88
33151;BME280;19508;42.578;23.416;2022-09-12T14:43:33;93473.34;;;21.09;45.36
33151;BME280;19508;42.578;23.416;2022-09-12T14:46:05;93490.25;;;21.29;45.42
33151;BME280;19508;42.578;23.416;2022-09-12T14:48:34;93484.91;;;21.32;45.28
33151;BME280;19508;42.578;23.416;2022-09-12T14:51:02;93486.38;;;21.30;44.87
33151;BME280;19508;42.578;23.416;2022-09-12T14:53:33;93484.13;;;21.15;44.54
33151;BME280;19508;42.578;23.416;2022-09-12T14:56:10;93497.94;;;21.27;44.62
33151;BME280;19508;42.578;23.416;2022-09-12T14:58:37;93498.75;;;21.27;45.42
33151;BME280;19508;42.578;23.416;2022-09-12T15:03:36;93492.09;;;20.90;45.85
33151;BME280;19508;42.578;23.416;2022-09-12T15:06:03;93498.03;;;20.92;45.55
33151;BME280;19508;42.578;23.416;2022-09-12T15:08:30;93490.28;;;21.11;46.06
33151;BME280;19508;42.578;23.416;2022-09-12T15:10:57;93488.41;;;20.86;45.80
33151;BME280;19508;42.578;23.416;2022-09-12T15:13:26;93485.81;;;20.81;46.67
33151;BME280;19508;42.578;23.416;2022-09-12T15:15:57;93491.44;;;20.84;46.60
33151;BME280;19508;42.578;23.416;2022-09-12T15:18:27;93471.47;;;20.84;46.70
33151;BME280;19508;42.578;23.416;2022-09-12T15:21:16;93484.53;;;20.87;47.21
33151;BME280;19508;42.578;23.416;2022-09-12T15:23:47;93481.50;;;20.80;47.08
33151;BME280;19508;42.578;23.416;2022-09-12T15:26:15;93493.41;;;20.67;47.66
33151;BME280;19508;42.578;23.416;2022-09-12T15:28:41;93480.72;;;20.53;46.82